Time;durP1;ratioP1;P1;durP2;ratioP2;P2;SDS_P1;SDS_P2;PMS_P1;PMS_P2;Temp;Humidity;BMP_temperature;BMP_pressure;BME280_temperature;BME280_humidity;BME280_pressure;Samples;Min_cycle;Max_cycle;Signal;HPM_P1;HPM_P2
2023/02/11 00:00:06;;;;;;;37.00;25.20;;;;;;;2.45;84.29;101804.02;182438;1235;46159;-89
2023/02/11 00:04:28;;;;;;;39.90;23.00;;;;;;;2.43;84.92;101799.66;182020;1234;60419;-89
2023/02/11 00:08:30;;;;;;;31.30;24.70;;;;;;;2.39;85.49;101800.29;182316;1234;46096;-89
2023/02/11 00:12:34;;;;;;;46.10;25.10;;;;;;;2.38;85.66;101791.02;182608;1239;46112;-89
2023/02/11 00:16:36;;;;;;;39.30;22.20;;;;;;;2.33;85.93;101779.56;182192;1234;46109;-88
2023/02/11 00:20:38;;;;;;;42.50;27.50;;;;;;;2.27;86.32;101766.94;182390;1239;45996;-89
2023/02/11 00:24:40;;;;;;;34.60;23.10;;;;;;;2.28;85.73;101756.23;182395;1236;56857;-90
2023/02/11 00:28:43;;;;;;;49.40;29.60;;;;;;;2.32;85.22;101765.59;182785;1239;45954;-89
2023/02/11 00:32:46;;;;;;;43.30;26.10;;;;;;;2.33;85.11;101766.11;182615;1234;46170;-88
2023/02/11 00:36:49;;;;;;;59.10;32.90;;;;;;;2.30;85.30;101768.64;182141;1234;46061;-89
2023/02/11 00:40:51;;;;;;;48.20;30.10;;;;;;;2.29;85.45;101765.31;182749;1236;45889;-89
2023/02/11 00:44:53;;;;;;;47.90;30.40;;;;;;;2.27;85.41;101760.13;182974;1238;58082;-89
2023/02/11 00:48:56;;;;;;;52.60;33.10;;;;;;;2.23;85.51;101749.88;182554;1239;45949;-90
2023/02/11 00:52:58;;;;;;;54.70;31.60;;;;;;;2.23;85.60;101749.73;182809;1234;46169;-89
2023/02/11 00:57:00;;;;;;;56.70;29.30;;;;;;;2.24;85.51;101752.83;182974;1239;46003;-90
2023/02/11 01:01:03;;;;;;;47.30;26.30;;;;;;;2.23;85.36;101746.55;182163;1234;46028;-88
2023/02/11 01:05:06;;;;;;;45.00;30.30;;;;;;;2.22;85.52;101739.23;182450;1235;58148;-90
2023/02/11 01:09:08;;;;;;;47.40;26.30;;;;;;;2.18;85.92;101729.88;182416;1239;46179;-89
2023/02/11 01:13:10;;;;;;;56.40;30.50;;;;;;;2.19;85.74;101713.77;182363;1234;46498;-89
2023/02/11 01:17:12;;;;;;;41.80;26.60;;;;;;;2.19;85.58;101704.31;182497;1239;45983;-87
2023/02/11 01:21:14;;;;;;;50.40;32.00;;;;;;;2.22;85.47;101707.38;182617;1234;45937;-90
2023/02/11 01:25:16;;;;;;;42.40;28.30;;;;;;;2.30;85.38;101697.71;182431;1235;58255;-90
2023/02/11 01:29:17;;;;;;;43.00;29.20;;;;;;;2.30;85.45;101686.35;183204;1236;45973;-90
2023/02/11 01:33:21;;;;;;;44.00;25.30;;;;;;;2.33;85.49;101684.51;182957;1235;44751;-90
2023/02/11 01:37:23;;;;;;;47.70;29.40;;;;;;;2.39;85.44;101678.94;182942;1234;46080;-90
2023/02/11 01:41:25;;;;;;;45.70;27.70;;;;;;;2.44;85.19;101669.70;182784;1235;46307;-90
2023/02/11 01:45:45;;;;;;;38.40;24.00;;;;;;;2.48;84.92;101658.59;183082;1236;59389;-89
2023/02/11 01:49:55;;;;;;;39.90;25.50;;;;;;;2.49;85.26;101650.49;182574;1239;45982;-89
2023/02/11 01:58:19;;;;;;;29.60;21.00;;;;;;;2.77;83.01;101633.13;182068;1236;46204;-89
2023/02/11 02:02:29;;;;;;;33.30;19.90;;;;;;;2.99;81.87;101624.63;182137;1239;46460;-89
2023/02/11 02:06:39;;;;;;;35.90;24.90;;;;;;;3.15;81.04;101625.21;182407;1235;57965;-90
2023/02/11 02:10:45;;;;;;;34.00;21.30;;;;;;;3.23;80.22;101623.59;182370;1235;46054;-89
2023/02/11 02:14:47;;;;;;;34.20;20.10;;;;;;;3.33;79.91;101627.15;182583;1235;46162;-89
2023/02/11 02:19:24;;;;;;;26.90;19.20;;;;;;;3.38;79.32;101628.41;182738;1235;45976;-89
2023/02/11 02:24:03;;;;;;;36.30;23.10;;;;;;;3.41;79.14;101616.91;182950;1239;45947;-90
2023/02/11 02:28:24;;;;;;;36.50;20.70;;;;;;;3.43;78.66;101605.11;184280;1234;58085;-90
2023/02/11 02:32:30;;;;;;;36.50;20.90;;;;;;;3.50;78.45;101588.41;183691;1239;46031;-89
2023/02/11 02:37:09;;;;;;;47.40;23.60;;;;;;;3.50;78.61;101568.05;182998;1235;45935;-89
2023/02/11 02:41:15;;;;;;;29.20;20.60;;;;;;;3.44;79.10;101568.42;181267;1244;45517;-89
2023/02/11 02:45:18;;;;;;;31.40;21.40;;;;;;;3.46;78.82;101579.91;181057;1247;46206;-90
2023/02/11 02:49:20;;;;;;;34.00;25.90;;;;;;;3.48;79.26;101572.84;181210;1242;58131;-90
2023/02/11 02:53:53;;;;;;;29.80;20.80;;;;;;;3.53;79.34;101550.42;181454;1248;46148;-89
2023/02/11 02:58:24;;;;;;;36.80;20.90;;;;;;;3.56;79.53;101541.20;181731;1244;46180;-89
2023/02/11 03:02:30;;;;;;;38.20;21.40;;;;;;;3.58;79.84;101518.54;181857;1244;46692;-90
2023/02/11 03:06:59;;;;;;;32.60;21.30;;;;;;;3.65;79.70;101509.88;181945;1242;46102;-91
2023/02/11 03:11:04;;;;;;;41.20;24.60;;;;;;;3.75;79.59;101510.95;181858;1244;57645;-90
2023/02/11 03:15:07;;;;;;;33.60;21.00;;;;;;;3.81;79.49;101512.65;181554;1243;45991;-90
2023/02/11 03:19:33;;;;;;;43.90;24.20;;;;;;;3.86;79.48;101528.48;183120;1235;46079;-89
2023/02/11 03:23:40;;;;;;;39.30;22.90;;;;;;;3.92;79.32;101522.83;182018;1239;46193;-90
2023/02/11 03:27:51;;;;;;;;;;;;;;;3.99;79.74;101531.90;182431;1235;45988;-89
2023/02/11 03:32:14;;;;;;;41.90;25.50;;;;;;;4.04;80.05;101544.73;182313;1238;57629;-90
2023/02/11 03:36:26;;;;;;;33.80;23.20;;;;;;;4.06;80.42;101553.79;182549;1234;46228;-89
2023/02/11 03:40:34;;;;;;;40.60;24.30;;;;;;;4.11;80.52;101539.91;182117;1240;209744;-90
2023/02/11 03:44:41;;;;;;;31.90;22.30;;;;;;;4.14;80.57;101539.28;182355;1235;45931;-88
2023/02/11 03:48:49;;;;;;;44.00;25.10;;;;;;;4.17;80.76;101534.78;182527;1235;45979;-89
2023/02/11 03:52:52;;;;;;;38.70;23.40;;;;;;;4.22;80.63;101510.91;182237;1239;59239;-89
2023/02/11 03:56:57;;;;;;;30.80;24.00;;;;;;;4.25;80.52;101501.67;182708;1235;45975;-89
2023/02/11 04:01:01;;;;;;;41.10;24.10;;;;;;;4.27;80.49;101497.55;182365;1235;46084;-90
2023/02/11 04:05:06;;;;;;;36.80;24.30;;;;;;;4.32;80.39;101493.50;182353;1234;46093;-91
2023/02/11 04:09:13;;;;;;;37.70;24.30;;;;;;;4.46;80.40;101506.74;181880;1240;45981;-90
2023/02/11 04:13:19;;;;;;;38.10;23.40;;;;;;;4.51;80.42;101500.38;182137;1234;59616;-89
2023/02/11 04:17:23;;;;;;;37.90;24.60;;;;;;;4.54;79.87;101491.16;182290;1235;46451;-90
2023/02/11 04:21:25;;;;;;;32.00;21.60;;;;;;;4.58;80.08;101500.14;182415;1235;45810;-89
2023/02/11 04:25:28;;;;;;;38.40;24.60;;;;;;;4.53;80.10;101497.67;182244;1235;46009;-89
2023/02/11 04:29:30;;;;;;;33.50;21.80;;;;;;;4.51;80.29;101490.58;182107;1238;46002;-89
2023/02/11 04:33:34;;;;;;;30.80;21.00;;;;;;;4.52;80.29;101487.90;182290;1235;57880;-89
2023/02/11 04:37:36;;;;;;;37.50;25.40;;;;;;;4.55;80.60;101482.67;182485;1235;46010;-90
2023/02/11 04:41:38;;;;;;;38.10;23.70;;;;;;;4.62;80.43;101479.44;182206;1234;45892;-90
2023/02/11 04:45:40;;;;;;;37.40;21.60;;;;;;;4.65;80.49;101470.34;182376;1235;45973;-89
2023/02/11 04:49:42;;;;;;;39.60;26.60;;;;;;;4.64;80.45;101464.58;182179;1240;46142;-89
2023/02/11 04:53:45;;;;;;;32.70;24.10;;;;;;;4.66;80.70;101458.39;183403;1235;58016;-90
2023/02/11 04:57:51;;;;;;;38.50;23.10;;;;;;;4.68;80.45;101450.88;182783;1235;45990;-90
2023/02/11 05:01:53;;;;;;;34.90;23.40;;;;;;;4.68;80.21;101450.19;183022;1235;45869;-89
2023/02/11 05:05:55;;;;;;;33.30;23.90;;;;;;;4.70;80.34;101448.58;182835;1238;46037;-90
2023/02/11 05:09:57;;;;;;;31.30;23.50;;;;;;;4.74;80.15;101449.65;183059;1235;46073;-90
2023/02/11 05:14:00;;;;;;;44.50;25.60;;;;;;;4.79;80.09;101451.55;182910;1235;59072;-90
2023/02/11 05:18:02;;;;;;;40.30;23.70;;;;;;;4.80;80.10;101431.31;182768;1235;45977;-90
2023/02/11 05:22:04;;;;;;;33.70;21.70;;;;;;;4.85;79.67;101422.84;182821;1238;46104;-90
2023/02/11 05:26:08;;;;;;;43.00;23.80;;;;;;;4.85;79.54;101417.57;183313;1235;46213;-90
2023/02/11 05:30:11;;;;;;;31.90;22.50;;;;;;;4.89;79.85;101413.55;183163;1235;46084;-90
2023/02/11 05:34:13;;;;;;;34.70;25.20;;;;;;;4.87;79.74;101411.34;183637;1235;58183;-90
2023/02/11 05:38:16;;;;;;;36.90;23.80;;;;;;;4.89;79.58;101408.10;182641;1236;46096;-90
2023/02/11 05:42:18;;;;;;;37.60;25.10;;;;;;;4.91;79.59;101408.39;182573;1235;46117;-90
2023/02/11 05:46:20;;;;;;;38.40;25.20;;;;;;;4.93;79.71;101408.63;182308;1235;46105;-90
2023/02/11 05:50:22;;;;;;;34.00;24.50;;;;;;;4.93;79.77;101415.66;182487;1235;46106;-89
2023/02/11 05:54:23;;;;;;;39.50;26.40;;;;;;;4.90;80.89;101399.96;182349;1236;59206;-90
2023/02/11 05:58:25;;;;;;;40.90;25.50;;;;;;;4.91;82.26;101392.04;182464;1235;46119;-89
2023/02/11 06:02:27;;;;;;;37.70;23.80;;;;;;;4.91;82.70;101391.86;182657;1235;46082;-90
2023/02/11 06:06:29;;;;;;;34.10;25.90;;;;;;;4.94;83.09;101393.48;182211;1235;45965;-90
2023/02/11 06:10:31;;;;;;;35.20;24.30;;;;;;;4.93;83.71;101398.61;182502;1235;46167;-90
2023/02/11 06:14:33;;;;;;;40.70;25.80;;;;;;;4.93;83.70;101389.33;182330;1238;59265;-90
2023/02/11 06:18:35;;;;;;;34.60;24.40;;;;;;;4.89;84.15;101387.73;182825;1234;46034;-90
2023/02/11 06:22:37;;;;;;;45.20;22.70;;;;;;;4.89;84.44;101389.27;182498;1235;46063;-90
2023/02/11 06:26:39;;;;;;;38.20;25.30;;;;;;;4.91;84.60;101383.95;183234;1238;46089;-90
2023/02/11 06:30:41;;;;;;;47.20;28.10;;;;;;;4.87;85.07;101382.87;183206;1234;46087;-90
2023/02/11 06:34:45;;;;;;;39.40;25.20;;;;;;;4.89;85.68;101385.27;183817;1234;57305;-89
2023/02/11 06:38:48;;;;;;;40.60;25.60;;;;;;;4.89;86.18;101381.55;182767;1238;45843;-89
2023/02/11 06:42:50;;;;;;;41.60;23.90;;;;;;;4.87;86.65;101384.64;183029;1234;46061;-90
2023/02/11 06:46:52;;;;;;;33.20;24.60;;;;;;;4.91;86.93;101391.68;183213;1235;45929;-89
2023/02/11 06:50:54;;;;;;;46.30;29.40;;;;;;;4.93;86.93;101394.40;182957;1234;46113;-89
2023/02/11 06:54:56;;;;;;;40.10;25.10;;;;;;;4.94;87.08;101391.20;182625;1238;58947;-89
2023/02/11 06:59:01;;;;;;;35.20;23.80;;;;;;;4.94;87.56;101385.58;182699;1236;46052;-90
2023/02/11 07:03:06;;;;;;;57.80;30.30;;;;;;;4.95;87.80;101382.54;182791;1236;46010;-89
2023/02/11 07:07:08;;;;;;;31.80;24.00;;;;;;;4.99;87.55;101391.33;182458;1234;46017;-89
2023/02/11 07:11:20;;;;;;;37.90;27.70;;;;;;;5.02;87.72;101380.13;183349;1234;46088;-89
2023/02/11 07:15:22;;;;;;;45.50;26.80;;;;;;;5.00;88.34;101367.39;182575;1235;59528;-89
2023/02/11 07:19:23;;;;;;;34.70;21.80;;;;;;;5.03;88.54;101367.63;182456;1234;45970;-89
2023/02/11 07:23:25;;;;;;;40.20;25.70;;;;;;;5.07;88.81;101358.33;182578;1239;46194;-89
2023/02/11 07:27:27;;;;;;;41.20;24.40;;;;;;;5.14;88.95;101362.45;183047;1235;46092;-89
2023/02/11 07:31:30;;;;;;;47.70;27.00;;;;;;;5.16;89.03;101361.84;182604;1234;46091;-88
2023/02/11 07:35:32;;;;;;;41.90;27.20;;;;;;;5.26;89.00;101370.40;182085;1234;58152;-87
2023/02/11 07:39:34;;;;;;;38.20;26.50;;;;;;;5.28;89.04;101381.73;182796;1234;45954;-88
2023/02/11 07:43:38;;;;;;;38.90;27.00;;;;;;;5.30;89.04;101380.23;182577;1236;46176;-89
2023/02/11 07:47:41;;;;;;;39.60;27.50;;;;;;;5.36;88.97;101371.02;182366;1235;45984;-89
2023/02/11 07:51:44;;;;;;;36.10;24.90;;;;;;;5.37;89.35;101367.83;183180;1234;46463;-90
2023/02/11 07:55:46;;;;;;;37.50;26.70;;;;;;;5.43;89.02;101357.35;182534;1238;59469;-90
2023/02/11 07:59:48;;;;;;;42.10;26.80;;;;;;;5.49;89.23;101362.89;182660;1238;44777;-90
2023/02/11 08:04:01;;;;;;;35.10;23.10;;;;;;;5.48;89.25;101363.30;182608;1238;45992;-90
2023/02/11 08:08:03;;;;;;;39.20;26.30;;;;;;;5.48;89.99;101373.16;182794;1236;46135;-90
2023/02/11 08:12:06;;;;;;;36.90;23.10;;;;;;;5.50;90.34;101368.86;182686;1235;44678;-89
2023/02/11 08:16:23;;;;;;;43.80;28.80;;;;;;;5.51;90.48;101372.47;182785;1234;57937;-90
2023/02/11 08:20:25;;;;;;;47.30;24.80;;;;;;;5.60;91.41;101380.56;183401;1235;46103;-91
2023/02/11 08:24:28;;;;;;;39.60;28.20;;;;;;;5.55;92.33;101376.88;183952;1238;44359;-91
2023/02/11 08:28:31;;;;;;;40.30;27.40;;;;;;;5.52;92.41;101378.27;183803;1238;46129;-90
2023/02/11 09:01:12;;;;;;;35.40;27.10;;;;;;;5.91;93.40;101352.45;185338;1240;60396;-89
2023/02/11 09:05:14;;;;;;;42.20;25.20;;;;;;;6.03;92.60;101351.03;183808;1240;45948;-90
2023/02/11 09:09:17;;;;;;;32.80;22.70;;;;;;;6.07;92.55;101341.38;183327;1241;46499;-89
2023/02/11 09:13:23;;;;;;;34.60;23.50;;;;;;;6.20;93.04;101345.38;184613;1238;45967;-90
2023/02/11 09:17:46;;;;;;;39.60;25.80;;;;;;;6.33;93.09;101344.77;184142;1237;44194;-89
2023/02/11 09:21:50;;;;;;;36.60;22.90;;;;;;;6.50;92.83;101338.34;182909;1236;58045;-90
2023/02/11 09:25:52;;;;;;;34.40;23.40;;;;;;;6.62;91.61;101337.05;182336;1238;46114;-88
2023/02/11 09:29:55;;;;;;;31.90;19.90;;;;;;;6.70;91.19;101333.84;182527;1240;46037;-90
2023/02/11 09:34:00;;;;;;;37.40;24.50;;;;;;;6.78;91.10;101334.89;184472;1241;46136;-89
2023/02/11 09:38:02;;;;;;;44.10;23.30;;;;;;;6.76;91.28;101316.64;185055;1234;78957;-70
2023/02/11 09:42:19;;;;;;;37.20;22.80;;;;;;;6.79;91.32;101303.27;186229;1234;57844;-71
2023/02/11 09:46:39;;;;;;;30.00;21.90;;;;;;;6.83;91.78;101289.86;186196;1234;43834;-70
2023/02/11 09:50:46;;;;;;;37.80;27.60;;;;;;;6.94;91.61;101275.38;185737;1234;45922;-71
2023/02/11 09:55:08;;;;;;;37.50;25.60;;;;;;;6.99;91.50;101289.71;185700;1234;45796;-71
2023/02/11 09:59:16;;;;;;;38.70;24.40;;;;;;;7.03;91.56;101301.17;185849;1235;45970;-71
2023/02/11 10:03:38;;;;;;;40.70;29.20;;;;;;;6.82;92.08;101301.33;185735;1233;58412;-72
2023/02/11 10:08:22;;;;;;;35.20;24.20;;;;;;;6.93;91.89;101301.15;185710;1233;43506;-73
2023/02/11 10:13:00;;;;;;;31.70;23.00;;;;;;;7.02;91.06;101291.00;185728;1234;45895;-73
2023/02/11 10:17:15;;;;;;;30.50;18.80;;;;;;;7.06;90.81;101273.34;185965;1234;43861;-72
2023/02/11 10:27:00;;;;;;;35.60;25.60;;;;;;;6.91;92.09;101300.04;186023;1234;57897;-72
2023/02/11 10:31:42;;;;;;;43.10;26.80;;;;;;;6.95;91.84;101307.92;185812;1233;43624;-72
2023/02/11 10:35:46;;;;;;;34.90;23.20;;;;;;;6.91;92.07;101290.48;186202;1234;46118;-71
2023/02/11 10:39:50;;;;;;;43.40;26.10;;;;;;;6.85;92.58;101278.79;185792;1234;45947;-72
2023/02/11 10:43:51;;;;;;;42.60;24.00;;;;;;;6.76;92.80;101267.80;185774;1234;45526;-71
2023/02/11 10:47:54;;;;;;;36.90;25.50;;;;;;;6.71;92.87;101272.80;185766;1233;58237;-72
2023/02/11 10:52:17;;;;;;;34.60;25.10;;;;;;;6.66;92.94;101277.95;186034;1234;45919;-72
2023/02/11 10:56:26;;;;;;;37.40;24.10;;;;;;;6.64;92.93;101277.38;186086;1234;43511;-72
2023/02/11 11:00:55;;;;;;;42.00;24.70;;;;;;;6.56;93.29;101287.97;185275;1238;46270;-72
2023/02/11 11:05:02;;;;;;;43.80;27.10;;;;;;;6.61;92.98;101300.61;185178;1239;43433;-72
2023/02/11 11:09:04;;;;;;;37.50;22.90;;;;;;;6.61;92.95;101291.27;185224;1238;57624;-72
2023/02/11 11:13:58;;;;;;;37.50;21.60;;;;;;;6.70;92.25;101264.55;185320;1238;43906;-72
2023/02/11 11:18:20;;;;;;;38.90;24.80;;;;;;;6.76;92.32;101268.88;185724;1234;43459;-72
2023/02/11 11:22:24;;;;;;;31.20;23.00;;;;;;;6.91;92.07;101257.88;185702;1234;45937;-72
2023/02/11 11:26:59;;;;;;;35.10;24.30;;;;;;;7.11;91.35;101250.89;185779;1234;43459;-70
2023/02/11 11:31:04;;;;;;;37.50;24.50;;;;;;;7.35;90.43;101258.45;185968;1233;58234;-72
2023/02/11 11:35:28;;;;;;;31.60;20.00;;;;;;;7.51;89.64;101258.64;185937;1234;43517;-72
2023/02/11 11:39:33;;;;;;;36.10;22.10;;;;;;;7.54;89.05;101272.45;185737;1233;43803;-72
2023/02/11 11:43:36;;;;;;;35.20;24.70;;;;;;;7.56;88.63;101274.45;185936;1234;43732;-72
2023/02/11 11:53:15;;;;;;;38.40;23.60;;;;;;;7.47;88.57;101257.80;185891;1234;56797;-71
2023/02/11 11:57:22;;;;;;;35.50;23.40;;;;;;;7.42;89.03;101269.20;186128;1234;43634;-72
2023/02/11 12:01:54;;;;;;;32.60;20.10;;;;;;;7.33;89.56;101255.02;185790;1234;45934;-72
2023/02/11 12:06:29;;;;;;;41.90;21.80;;;;;;;7.35;90.44;101251.02;185719;1233;44504;-72
2023/02/11 12:15:40;;;;;;;31.00;22.40;;;;;;;7.23;91.01;101243.52;183286;1235;60354;-88
2023/02/11 12:19:49;;;;;;;34.00;23.50;;;;;;;7.37;90.79;101231.86;182975;1238;46070;-89
2023/02/11 12:23:54;;;;;;;28.50;19.40;;;;;;;7.39;90.31;101217.81;182743;1237;45947;-89
2023/02/11 12:28:06;;;;;;;30.10;21.20;;;;;;;7.44;90.24;101221.79;182772;1235;46081;-89
2023/02/11 12:32:30;;;;;;;39.70;22.40;;;;;;;7.49;89.92;101215.87;182312;1238;46293;-88
2023/02/11 12:36:53;;;;;;;31.00;20.70;;;;;;;7.42;90.02;101235.14;182530;1238;59484;-89
2023/02/11 12:41:03;;;;;;;38.60;25.20;;;;;;;7.28;90.48;101235.02;182668;1237;46063;-88
2023/02/11 12:45:24;;;;;;;37.40;21.30;;;;;;;7.13;91.14;101245.30;182186;1240;45128;-88
2023/02/11 12:49:49;;;;;;;37.60;24.60;;;;;;;7.14;91.39;101236.75;182803;1235;45947;-89
2023/02/11 12:54:09;;;;;;;33.20;23.70;;;;;;;7.07;91.63;101207.13;182487;1240;44863;-89
2023/02/11 12:58:43;;;;;;;33.10;22.20;;;;;;;7.16;91.73;101184.27;182975;1235;59285;-90
2023/02/11 13:03:11;;;;;;;32.80;20.80;;;;;;;7.22;91.69;101181.80;182586;1235;45949;-90
2023/02/11 13:07:29;;;;;;;27.00;21.00;;;;;;;7.23;91.83;101177.88;183250;1235;45949;-88
2023/02/11 13:11:39;;;;;;;38.20;22.70;;;;;;;7.27;91.88;101179.96;183098;1235;45963;-89
2023/02/11 13:16:04;;;;;;;33.10;24.70;;;;;;;7.21;91.90;101181.02;182794;1234;46083;-88
2023/02/11 13:20:29;;;;;;;30.50;24.00;;;;;;;7.17;92.38;101185.82;182565;1235;59418;-87
2023/02/11 13:25:02;;;;;;;36.60;23.50;;;;;;;7.27;92.52;101187.62;182573;1235;46049;-89
2023/02/11 13:29:15;;;;;;;37.90;23.30;;;;;;;7.34;91.82;101197.29;183074;1238;45913;-89
2023/02/11 13:33:31;;;;;;;27.20;21.10;;;;;;;7.23;92.03;101190.09;183651;1238;46012;-90
2023/02/11 13:37:55;;;;;;;35.20;22.70;;;;;;;7.16;92.71;101197.85;183332;1238;44844;-89
2023/02/11 13:42:03;;;;;;;36.20;22.10;;;;;;;7.10;93.35;101196.05;183959;1235;59383;-89
2023/02/11 13:46:09;;;;;;;34.40;23.50;;;;;;;7.08;94.15;101193.70;183775;1238;45979;-89
2023/02/11 13:50:42;;;;;;;38.00;21.40;;;;;;;6.97;95.07;101199.70;183676;1235;46033;-88
2023/02/11 13:54:52;;;;;;;31.70;21.80;;;;;;;7.03;95.39;101198.17;183641;1236;46026;-89
2023/02/11 13:58:54;;;;;;;25.50;18.70;;;;;;;7.02;95.75;101192.08;183945;1234;44140;-90
2023/02/11 14:12:35;;;;;;;29.60;22.90;;;;;;;7.03;96.11;101209.13;184993;1238;45961;-90
2023/02/11 14:21:28;;;;;;;37.70;20.70;;;;;;;6.96;97.22;101216.71;185725;1235;44973;-86
2023/02/11 14:26:25;;;;;;;33.50;21.90;;;;;;;6.90;98.09;101205.92;185209;1236;57874;-87
2023/02/11 14:30:37;;;;;;;34.10;22.20;;;;;;;6.88;98.66;101211.63;182991;1241;46046;-89
2023/02/11 14:35:05;;;;;;;32.50;19.70;;;;;;;6.82;99.69;101222.19;183275;1236;46062;-89
2023/02/11 14:39:40;;;;;;;27.40;19.50;;;;;;;6.80;99.97;101216.50;183504;1237;44588;-88
2023/02/11 14:43:55;;;;;;;30.90;19.70;;;;;;;6.77;100.00;101218.04;183409;1238;45967;-88
2023/02/11 14:48:07;;;;;;;25.90;18.90;;;;;;;6.71;100.00;101236.81;182592;1238;58241;-88
2023/02/11 14:52:35;;;;;;;28.90;19.70;;;;;;;6.77;100.00;101248.71;182743;1237;46073;-89
2023/02/11 14:56:43;;;;;;;27.60;20.00;;;;;;;6.78;100.00;101249.01;182631;1236;46178;-89
2023/02/11 15:00:59;;;;;;;24.00;18.30;;;;;;;6.70;100.00;101269.48;183008;1238;45957;-90
2023/02/11 15:05:15;;;;;;;25.90;17.50;;;;;;;6.68;100.00;101270.48;183009;1237;46109;-89
2023/02/11 15:09:43;;;;;;;26.40;16.00;;;;;;;6.58;100.00;101267.98;183296;1241;58638;-89
2023/02/11 15:13:50;;;;;;;25.00;17.70;;;;;;;6.46;100.00;101283.16;183371;1241;45971;-87
2023/02/11 15:17:58;;;;;;;21.10;14.50;;;;;;;6.37;100.00;101280.23;183793;1234;46014;-88
2023/02/11 15:22:04;;;;;;;29.20;16.90;;;;;;;6.30;100.00;101285.52;184088;1234;46209;-86
2023/02/11 15:26:13;;;;;;;26.70;19.00;;;;;;;6.24;100.00;101283.89;183814;1235;45912;-89
2023/02/11 15:30:21;;;;;;;26.10;17.00;;;;;;;6.21;100.00;101275.54;184334;1234;59416;-88
2023/02/11 15:34:23;;;;;;;25.70;17.60;;;;;;;6.27;100.00;101279.16;183618;1234;45130;-89
2023/02/11 15:38:28;;;;;;;23.10;18.40;;;;;;;6.29;100.00;101282.59;184035;1236;46068;-89
2023/02/11 15:42:31;;;;;;;28.20;20.40;;;;;;;6.27;100.00;101284.63;183081;1235;322915;-89
2023/02/11 15:46:46;;;;;;;23.70;14.50;;;;;;;6.24;100.00;101289.52;184119;1236;45989;-89
2023/02/11 15:50:57;;;;;;;25.90;17.00;;;;;;;6.16;100.00;101300.63;183920;1234;58608;-89
2023/02/11 15:55:31;;;;;;;;;;;;;;;;;;;;;
2023/02/11 15:59:55;;;;;;;23.50;15.90;;;;;;;6.01;100.00;101325.06;185193;1236;44651;-88
2023/02/11 16:03:59;;;;;;;25.90;15.40;;;;;;;5.97;100.00;101324.73;184035;1236;46063;-90
2023/02/11 16:08:28;;;;;;;21.90;15.80;;;;;;;6.04;100.00;101327.60;183514;1238;46125;-88
2023/02/11 16:12:30;;;;;;;21.60;17.60;;;;;;;6.09;100.00;101325.95;182736;1240;58365;-89
2023/02/11 16:16:34;;;;;;;24.40;15.80;;;;;;;6.12;100.00;101321.25;183677;1236;46028;-89
2023/02/11 16:20:37;;;;;;;27.00;19.00;;;;;;;6.21;100.00;101318.55;184585;1238;45204;-90
2023/02/11 16:25:19;;;;;;;21.30;16.30;;;;;;;6.25;100.00;101320.81;184371;1236;44928;-90
2023/02/11 16:29:31;;;;;;;24.30;17.80;;;;;;;6.25;100.00;101321.86;184374;1240;44423;-90
2023/02/11 16:33:41;;;;;;;27.00;15.80;;;;;;;6.27;100.00;101316.11;184488;1236;58482;-89
2023/02/11 16:37:44;;;;;;;20.00;16.30;;;;;;;6.26;100.00;101322.34;184314;1236;45958;-90
2023/02/11 16:41:51;;;;;;;28.40;16.70;;;;;;;6.31;100.00;101321.04;184219;1236;45939;-89
2023/02/11 16:58:59;;;;;;;25.20;15.80;;;;;;;6.21;100.00;101356.21;186724;1234;44860;-89
2023/02/11 17:03:38;;;;;;;21.10;15.00;;;;;;;6.17;100.00;101361.70;187097;1234;82625;-79
2023/02/11 17:16:39;;;;;;;26.50;15.60;;;;;;;6.19;100.00;101377.30;186125;1236;59238;-91
2023/02/11 17:20:41;;;;;;;19.90;15.60;;;;;;;6.14;100.00;101370.80;185676;1236;43776;-90
2023/02/11 17:24:43;;;;;;;23.60;15.10;;;;;;;6.15;100.00;101372.52;185738;1236;44386;-89
2023/02/11 17:28:47;;;;;;;20.30;15.40;;;;;;;6.25;100.00;101366.45;185798;1235;44296;-88
2023/02/11 17:32:49;;;;;;;17.70;13.00;;;;;;;6.27;100.00;101363.15;185809;1235;43985;-89
2023/02/11 17:36:51;;;;;;;18.50;15.40;;;;;;;6.35;100.00;101360.18;185889;1235;57882;-89
2023/02/11 17:40:58;;;;;;;16.00;12.50;;;;;;;6.42;100.00;101377.64;185706;1235;44055;-89
2023/02/11 17:45:00;;;;;;;15.40;10.70;;;;;;;6.41;100.00;101395.11;185735;1235;44125;-88
2023/02/11 17:49:02;;;;;;;17.80;13.20;;;;;;;6.36;100.00;101399.23;185710;1235;43969;-88
2023/02/11 17:53:05;;;;;;;18.10;13.00;;;;;;;6.37;100.00;101417.70;185719;1235;43745;-89
2023/02/11 17:57:09;;;;;;;15.10;10.20;;;;;;;6.27;100.00;101431.34;185706;1235;58127;-89
2023/02/11 18:01:11;;;;;;;16.50;12.50;;;;;;;6.16;100.00;101451.03;185960;1235;44086;-91
2023/02/11 18:05:14;;;;;;;16.90;11.50;;;;;;;6.15;100.00;101448.08;186035;1235;43701;-89
2023/02/11 18:09:16;;;;;;;22.70;14.90;;;;;;;6.12;100.00;101455.09;185743;1235;43824;-89
2023/02/11 18:13:18;;;;;;;23.30;16.90;;;;;;;6.15;100.00;101467.48;185939;1235;43800;-90
2023/02/11 18:17:21;;;;;;;25.90;18.70;;;;;;;6.23;100.00;101472.39;185686;1235;59630;-89
2023/02/11 18:21:23;;;;;;;22.00;13.30;;;;;;;6.23;100.00;101470.66;185753;1235;43641;-89
2023/02/11 18:25:25;;;;;;;26.40;15.90;;;;;;;6.15;100.00;101477.34;185814;1235;43744;-88
2023/02/11 18:29:28;;;;;;;22.80;15.90;;;;;;;6.13;100.00;101483.95;186117;1233;43773;-87
2023/02/11 18:33:30;;;;;;;22.70;17.30;;;;;;;6.07;100.00;101483.46;186349;1232;43769;-86
2023/02/11 18:37:32;;;;;;;19.70;15.40;;;;;;;6.05;100.00;101484.80;186199;1234;60235;-88
2023/02/11 18:41:34;;;;;;;23.50;16.10;;;;;;;6.07;100.00;101475.89;186294;1234;43767;-88
2023/02/11 18:45:36;;;;;;;24.00;17.10;;;;;;;6.08;100.00;101467.23;186362;1233;44015;-89
2023/02/11 18:49:38;;;;;;;22.50;14.70;;;;;;;6.05;100.00;101479.34;186335;1233;44063;-88
2023/02/11 18:53:41;;;;;;;24.50;16.50;;;;;;;5.96;100.00;101490.09;186196;1233;43754;-87
2023/02/11 18:57:44;;;;;;;24.80;17.00;;;;;;;6.00;100.00;101499.09;186258;1233;59033;-89
2023/02/11 19:01:46;;;;;;;26.80;18.70;;;;;;;6.06;100.00;101506.24;186249;1233;43799;-88
2023/02/11 19:05:50;;;;;;;24.80;18.40;;;;;;;6.09;100.00;101511.92;186160;1233;43709;-88
2023/02/11 19:09:54;;;;;;;25.90;18.80;;;;;;;6.08;100.00;101518.66;186223;1236;45358;-88
2023/02/11 19:13:57;;;;;;;23.80;16.80;;;;;;;6.04;100.00;101520.60;186206;1234;43692;-88
2023/02/11 19:17:59;;;;;;;24.20;20.00;;;;;;;6.05;100.00;101528.30;186329;1234;58438;-88
2023/02/11 19:22:04;;;;;;;27.10;17.10;;;;;;;6.12;100.00;101528.02;186162;1233;43901;-89
2023/02/11 19:26:09;;;;;;;22.00;18.10;;;;;;;6.09;100.00;101532.90;186137;1233;44080;-88
2023/02/11 19:30:11;;;;;;;25.20;18.50;;;;;;;6.09;100.00;101528.50;186196;1233;43830;-88
2023/02/11 19:34:15;;;;;;;24.60;19.70;;;;;;;6.09;100.00;101520.89;186271;1235;43832;-87
2023/02/11 19:38:23;;;;;;;22.60;18.10;;;;;;;6.17;100.00;101512.11;186339;1234;59505;-88
2023/02/11 19:42:36;;;;;;;23.80;17.00;;;;;;;6.26;100.00;101521.77;186295;1234;44281;-91
2023/02/11 19:47:05;;;;;;;26.40;19.70;;;;;;;6.25;100.00;101521.44;186384;1234;43768;-90
2023/02/11 19:51:24;;;;;;;32.50;20.80;;;;;;;6.20;100.00;101534.55;186063;1233;43769;-89
2023/02/11 19:55:30;;;;;;;33.70;20.30;;;;;;;6.14;100.00;101538.85;186070;1233;45883;-88
2023/02/11 19:59:46;;;;;;;22.10;17.40;;;;;;;6.12;100.00;101533.83;186138;1233;59666;-89
2023/02/11 20:04:02;;;;;;;25.60;15.90;;;;;;;6.23;100.00;101532.83;186213;1234;44059;-90
2023/02/11 20:08:12;;;;;;;19.30;16.30;;;;;;;6.29;100.00;101529.73;186272;1233;44091;-88
2023/02/11 20:12:23;;;;;;;26.70;19.60;;;;;;;6.37;100.00;101536.11;186408;1233;44070;-89
2023/02/11 20:16:28;;;;;;;21.30;16.60;;;;;;;6.42;100.00;101538.34;186346;1232;44028;-89